createdAt,value
2022-10-19T00:00:08.122Z,1006.84
2022-10-19T00:01:08.116Z,1006.81
2022-10-19T00:02:08.166Z,1006.80
2022-10-19T00:03:08.123Z,1006.90
2022-10-19T00:04:08.964Z,1006.88
2022-10-19T00:05:08.090Z,1006.85
2022-10-19T00:06:08.072Z,1006.80
2022-10-19T00:07:08.065Z,1006.87
2022-10-19T00:08:08.089Z,1006.89
2022-10-19T00:09:08.091Z,1006.90
2022-10-19T00:10:08.043Z,1006.89
2022-10-19T00:11:08.040Z,1006.89
2022-10-19T00:12:08.034Z,1006.90
2022-10-19T00:13:08.020Z,1006.91
2022-10-19T00:14:08.053Z,1006.92
2022-10-19T00:15:08.005Z,1006.93
2022-10-19T00:16:10.643Z,1006.89
2022-10-19T00:17:08.992Z,1006.95
2022-10-19T00:18:08.021Z,1006.95
2022-10-19T00:19:08.001Z,1006.93
2022-10-19T00:20:07.995Z,1006.98
2022-10-19T00:21:07.966Z,1006.95
2022-10-19T00:22:10.330Z,1006.92
2022-10-19T00:23:08.981Z,1006.96
2022-10-19T00:24:07.940Z,1006.96
2022-10-19T00:25:07.931Z,1007.00
2022-10-19T00:26:07.960Z,1007.02
2022-10-19T00:27:07.918Z,1006.97
2022-10-19T00:28:07.916Z,1007.04
2022-10-19T00:29:07.981Z,1007.00
2022-10-19T00:30:07.899Z,1006.98
2022-10-19T00:31:07.886Z,1006.94
2022-10-19T00:32:07.881Z,1006.95
2022-10-19T00:33:07.871Z,1006.94
2022-10-19T00:34:07.895Z,1006.95
2022-10-19T00:35:07.857Z,1006.95
2022-10-19T00:36:07.846Z,1007.01
2022-10-19T00:37:07.842Z,1007.00
2022-10-19T00:38:07.841Z,1006.97
2022-10-19T00:39:07.856Z,1006.96
2022-10-19T00:40:07.829Z,1007.02
2022-10-19T00:41:07.812Z,1006.97
2022-10-19T00:42:07.797Z,1007.07
2022-10-19T00:43:07.822Z,1007.05
2022-10-19T00:44:07.807Z,1007.08
2022-10-19T00:45:07.785Z,1007.07
2022-10-19T00:46:07.771Z,1007.06
2022-10-19T00:47:07.763Z,1007.13
2022-10-19T00:48:07.758Z,1007.06
2022-10-19T00:49:10.034Z,1007.10
2022-10-19T00:50:07.746Z,1007.12
2022-10-19T00:51:07.730Z,1007.09
2022-10-19T00:52:07.729Z,1007.15
2022-10-19T00:53:07.721Z,1007.12
2022-10-19T00:54:07.738Z,1007.06
2022-10-19T00:55:07.705Z,1007.07
2022-10-19T00:56:07.696Z,1007.03
2022-10-19T00:57:07.690Z,1006.99
2022-10-19T00:58:07.677Z,1006.95
2022-10-19T00:59:07.714Z,1007.00
2022-10-19T01:00:07.672Z,1006.95
2022-10-19T01:01:07.762Z,1006.96
2022-10-19T01:02:07.650Z,1006.99
2022-10-19T01:03:07.652Z,1006.95
2022-10-19T01:04:07.663Z,1006.95
2022-10-19T01:05:07.631Z,1006.96
2022-10-19T01:06:07.614Z,1006.99
2022-10-19T01:07:07.616Z,1006.99
2022-10-19T01:08:07.607Z,1007.00
2022-10-19T01:09:07.635Z,1006.91
2022-10-19T01:10:07.588Z,1006.92
2022-10-19T01:11:07.578Z,1006.98
2022-10-19T01:12:07.573Z,1006.95
2022-10-19T01:13:07.568Z,1006.95
2022-10-19T01:14:07.587Z,1006.89
2022-10-19T01:15:07.551Z,1006.89
2022-10-19T01:16:07.543Z,1006.88
2022-10-19T01:17:07.532Z,1006.86
2022-10-19T01:18:07.523Z,1006.78
2022-10-19T01:19:07.561Z,1006.85
2022-10-19T01:20:07.514Z,1006.86
2022-10-19T01:21:07.511Z,1006.78
2022-10-19T01:22:07.509Z,1006.79
2022-10-19T01:23:07.498Z,1006.73
2022-10-19T01:24:07.514Z,1006.69
2022-10-19T01:25:07.485Z,1006.73
2022-10-19T01:26:07.484Z,1006.66
2022-10-19T01:27:07.468Z,1006.65
2022-10-19T01:28:07.456Z,1006.71
2022-10-19T01:29:07.512Z,1006.63
2022-10-19T01:30:07.441Z,1006.67
2022-10-19T01:31:07.428Z,1006.73
2022-10-19T01:32:07.421Z,1006.72
2022-10-19T01:33:07.407Z,1006.69
2022-10-19T01:34:07.437Z,1006.75
2022-10-19T01:35:07.395Z,1006.73
2022-10-19T01:36:07.387Z,1006.67
2022-10-19T01:37:07.383Z,1006.71
2022-10-19T01:38:07.374Z,1006.69
2022-10-19T01:39:07.378Z,1006.71
2022-10-19T01:40:07.388Z,1006.63
2022-10-19T01:41:07.362Z,1006.68
2022-10-19T01:42:07.343Z,1006.63
2022-10-19T01:43:07.344Z,1006.65
2022-10-19T01:44:07.323Z,1006.58
2022-10-19T01:45:07.338Z,1006.59
2022-10-19T01:46:07.304Z,1006.62
2022-10-19T01:47:07.304Z,1006.53
2022-10-19T01:48:07.303Z,1006.62
2022-10-19T01:49:07.289Z,1006.55
2022-10-19T01:50:07.297Z,1006.47
2022-10-19T01:51:07.272Z,1006.47
2022-10-19T01:52:07.271Z,1006.48
2022-10-19T01:53:07.250Z,1006.43
2022-10-19T01:54:07.242Z,1006.42
2022-10-19T01:55:07.257Z,1006.50
2022-10-19T01:56:07.231Z,1006.46
2022-10-19T01:57:07.225Z,1006.46
2022-10-19T01:58:09.477Z,1006.48
2022-10-19T01:59:07.202Z,1006.45
2022-10-19T02:00:07.230Z,1006.42
2022-10-19T02:01:07.306Z,1006.32
2022-10-19T02:02:07.181Z,1006.32
2022-10-19T02:03:07.188Z,1006.43
2022-10-19T02:04:07.188Z,1006.37
2022-10-19T02:05:07.197Z,1006.40
2022-10-19T02:06:07.155Z,1006.30
2022-10-19T02:07:07.157Z,1006.41
2022-10-19T02:08:07.148Z,1006.35
2022-10-19T02:09:07.138Z,1006.48
2022-10-19T02:10:07.225Z,1006.35
2022-10-19T02:11:07.119Z,1006.36
2022-10-19T02:12:07.107Z,1006.41
2022-10-19T02:13:07.099Z,1006.44
2022-10-19T02:14:07.097Z,1006.41
2022-10-19T02:15:07.112Z,1006.38
2022-10-19T02:16:07.075Z,1006.34
2022-10-19T02:17:07.076Z,1006.31
2022-10-19T02:18:07.066Z,1006.32
2022-10-19T02:19:07.053Z,1006.31
2022-10-19T02:20:07.099Z,1006.33
2022-10-19T02:21:07.039Z,1006.28
2022-10-19T02:22:07.028Z,1006.22
2022-10-19T02:23:07.041Z,1006.26
2022-10-19T02:24:07.023Z,1006.24
2022-10-19T02:25:07.036Z,1006.31
2022-10-19T02:26:07.003Z,1006.23
2022-10-19T02:27:06.987Z,1006.16
2022-10-19T02:28:06.979Z,1006.24
2022-10-19T02:29:06.979Z,1006.28
2022-10-19T02:30:06.997Z,1006.28
2022-10-19T02:31:06.959Z,1006.25
2022-10-19T02:32:06.955Z,1006.28
2022-10-19T02:33:06.944Z,1006.24
2022-10-19T02:34:06.941Z,1006.18
2022-10-19T02:35:06.960Z,1006.24
2022-10-19T02:36:06.928Z,1006.25
2022-10-19T02:37:06.916Z,1006.18
2022-10-19T02:38:06.907Z,1006.21
2022-10-19T02:39:06.902Z,1006.22
2022-10-19T02:40:06.933Z,1006.21
2022-10-19T02:41:06.883Z,1006.25
2022-10-19T02:42:06.876Z,1006.27
2022-10-19T02:43:06.871Z,1006.27
2022-10-19T02:44:06.864Z,1006.24
2022-10-19T02:45:06.861Z,1006.34
2022-10-19T02:46:06.877Z,1006.31
2022-10-19T02:47:06.841Z,1006.29
2022-10-19T02:48:06.847Z,1006.33
2022-10-19T02:49:06.835Z,1006.29
2022-10-19T02:50:06.821Z,1006.37
2022-10-19T02:51:06.843Z,1006.33
2022-10-19T02:52:06.804Z,1006.33
2022-10-19T02:53:06.795Z,1006.35
2022-10-19T02:54:06.791Z,1006.34
2022-10-19T02:55:06.788Z,1006.38
2022-10-19T02:56:06.803Z,1006.42
2022-10-19T02:57:06.773Z,1006.39
2022-10-19T02:58:06.762Z,1006.39
2022-10-19T02:59:06.755Z,1006.40
2022-10-19T03:00:06.757Z,1006.29
2022-10-19T03:01:06.815Z,1006.35
2022-10-19T03:02:06.733Z,1006.31
2022-10-19T03:03:06.729Z,1006.32
2022-10-19T03:04:06.717Z,1006.30
2022-10-19T03:05:06.733Z,1006.30
2022-10-19T03:06:06.742Z,1006.28
2022-10-19T03:07:06.704Z,1006.31
2022-10-19T03:08:06.688Z,1006.30
2022-10-19T03:09:06.678Z,1006.30
2022-10-19T03:10:06.675Z,1006.29
2022-10-19T03:11:06.700Z,1006.28
2022-10-19T03:12:06.659Z,1006.23
2022-10-19T03:13:06.658Z,1006.25
2022-10-19T03:14:06.661Z,1006.28
2022-10-19T03:15:06.629Z,1006.24
2022-10-19T03:16:06.663Z,1006.24
2022-10-19T03:17:06.630Z,1006.25
2022-10-19T03:18:06.610Z,1006.25
2022-10-19T03:19:06.602Z,1006.27
2022-10-19T03:20:06.597Z,1006.26
2022-10-19T03:21:06.612Z,1006.31
2022-10-19T03:22:06.576Z,1006.23
2022-10-19T03:23:06.573Z,1006.21
2022-10-19T03:24:07.565Z,1006.25
2022-10-19T03:25:06.560Z,1006.33
2022-10-19T03:26:08.749Z,1006.39
2022-10-19T03:27:06.557Z,1006.35
2022-10-19T03:28:06.546Z,1006.37
2022-10-19T03:29:06.536Z,1006.40
2022-10-19T03:30:06.521Z,1006.37
2022-10-19T03:31:06.542Z,1006.42
2022-10-19T03:32:06.506Z,1006.40
2022-10-19T03:33:06.514Z,1006.43
2022-10-19T03:34:06.498Z,1006.49
2022-10-19T03:35:06.487Z,1006.48
2022-10-19T03:36:06.506Z,1006.43
2022-10-19T03:37:06.496Z,1006.52
2022-10-19T03:38:06.469Z,1006.55
2022-10-19T03:39:06.456Z,1006.53
2022-10-19T03:40:06.456Z,1006.53
2022-10-19T03:41:06.442Z,1006.56
2022-10-19T03:42:06.469Z,1006.59
2022-10-19T03:43:06.427Z,1006.57
2022-10-19T03:44:06.423Z,1006.58
2022-10-19T03:45:06.417Z,1006.58
2022-10-19T03:46:06.408Z,1006.63
2022-10-19T03:47:06.426Z,1006.57
2022-10-19T03:48:06.385Z,1006.61
2022-10-19T03:49:06.381Z,1006.65
2022-10-19T03:50:06.402Z,1006.60
2022-10-19T03:51:06.370Z,1006.69
2022-10-19T03:52:06.383Z,1006.62
2022-10-19T03:53:06.369Z,1006.64
2022-10-19T03:54:06.349Z,1006.65
2022-10-19T03:55:06.340Z,1006.69
2022-10-19T03:56:06.331Z,1006.66
2022-10-19T03:57:06.356Z,1006.66
2022-10-19T03:58:06.312Z,1006.65
2022-10-19T03:59:06.307Z,1006.67
2022-10-19T04:00:06.353Z,1006.66
2022-10-19T04:01:06.329Z,1006.65
2022-10-19T04:02:06.312Z,1006.71
2022-10-19T04:03:06.281Z,1006.71
2022-10-19T04:04:06.271Z,1006.75
2022-10-19T04:05:06.267Z,1006.72
2022-10-19T04:06:06.279Z,1006.80
2022-10-19T04:07:06.243Z,1006.75
2022-10-19T04:08:06.240Z,1006.76
2022-10-19T04:09:06.224Z,1006.75
2022-10-19T04:10:06.227Z,1006.77
2022-10-19T04:11:06.240Z,1006.71
2022-10-19T04:12:06.201Z,1006.74
2022-10-19T04:13:06.198Z,1006.68
2022-10-19T04:14:06.260Z,1006.72
2022-10-19T04:15:38.141Z,1006.72
2022-10-19T04:16:06.177Z,1006.72
2022-10-19T04:17:06.167Z,1006.74
2022-10-19T04:18:06.173Z,1006.68
2022-10-19T04:19:06.152Z,1006.72
2022-10-19T04:20:06.137Z,1006.75
2022-10-19T04:21:06.176Z,1006.75
2022-10-19T04:22:06.132Z,1006.69
2022-10-19T04:23:06.205Z,1006.77
2022-10-19T04:24:06.106Z,1006.73
2022-10-19T04:25:07.100Z,1006.73
2022-10-19T04:26:06.127Z,1006.66
2022-10-19T04:27:06.092Z,1006.77
2022-10-19T04:28:06.083Z,1006.71
2022-10-19T04:29:06.163Z,1006.74
2022-10-19T04:30:06.069Z,1006.79
2022-10-19T04:31:06.104Z,1006.77
2022-10-19T04:32:06.052Z,1006.74
2022-10-19T04:33:06.089Z,1006.77
2022-10-19T04:34:06.037Z,1006.80
2022-10-19T04:35:06.062Z,1006.79
2022-10-19T04:36:06.033Z,1006.79
2022-10-19T04:37:06.015Z,1006.85
2022-10-19T04:38:06.012Z,1006.83
2022-10-19T04:39:06.001Z,1006.79
2022-10-19T04:40:06.005Z,1006.86
2022-10-19T04:41:06.015Z,1006.88
2022-10-19T04:42:05.974Z,1006.89
2022-10-19T04:43:05.983Z,1006.85
2022-10-19T04:44:05.961Z,1006.88
2022-10-19T04:45:05.950Z,1006.86
2022-10-19T04:46:05.968Z,1006.83
2022-10-19T04:47:05.934Z,1006.89
2022-10-19T04:48:05.925Z,1006.91
2022-10-19T04:49:05.921Z,1006.85
2022-10-19T04:50:05.920Z,1006.83
2022-10-19T04:51:05.931Z,1006.86
2022-10-19T04:52:05.902Z,1006.89
2022-10-19T04:53:05.897Z,1006.88
2022-10-19T04:54:05.897Z,1006.88
2022-10-19T04:55:05.880Z,1006.86
2022-10-19T04:56:05.906Z,1006.77
2022-10-19T04:57:05.864Z,1006.86
2022-10-19T04:58:05.854Z,1006.84
2022-10-19T04:59:05.847Z,1006.81
2022-10-19T05:00:05.837Z,1006.86
2022-10-19T05:01:05.908Z,1006.88
2022-10-19T05:02:05.826Z,1006.74
2022-10-19T05:03:05.813Z,1006.82
2022-10-19T05:04:05.808Z,1006.74
2022-10-19T05:05:05.802Z,1006.77
2022-10-19T05:06:05.829Z,1006.78
2022-10-19T05:07:05.781Z,1006.78
2022-10-19T05:08:05.773Z,1006.74
2022-10-19T05:09:05.770Z,1006.77
2022-10-19T05:10:05.760Z,1006.78
2022-10-19T05:11:05.773Z,1006.75
2022-10-19T05:12:05.742Z,1006.82
2022-10-19T05:13:05.738Z,1006.78
2022-10-19T05:14:05.726Z,1006.77
2022-10-19T05:15:05.722Z,1006.73
2022-10-19T05:16:05.738Z,1006.76
2022-10-19T05:17:05.705Z,1006.76
2022-10-19T05:18:05.705Z,1006.77
2022-10-19T05:19:05.684Z,1006.74
2022-10-19T05:20:05.677Z,1006.69
2022-10-19T05:21:05.702Z,1006.69
2022-10-19T05:22:05.665Z,1006.70
2022-10-19T05:23:07.292Z,1006.68
2022-10-19T05:24:05.655Z,1006.57
2022-10-19T05:25:05.639Z,1006.61
2022-10-19T05:26:05.657Z,1006.62
2022-10-19T05:27:05.622Z,1006.56
2022-10-19T05:28:05.622Z,1006.54
2022-10-19T05:29:05.636Z,1006.62
2022-10-19T05:30:05.595Z,1006.55
2022-10-19T05:31:05.623Z,1006.56
2022-10-19T05:32:05.581Z,1006.61
2022-10-19T05:33:05.576Z,1006.59
2022-10-19T05:34:05.574Z,1006.61
2022-10-19T05:35:05.595Z,1006.59
2022-10-19T05:36:05.552Z,1006.58
2022-10-19T05:37:05.546Z,1006.61
2022-10-19T05:38:05.569Z,1006.69
2022-10-19T05:39:05.533Z,1006.73
2022-10-19T05:40:05.553Z,1006.69
2022-10-19T05:41:05.520Z,1006.63
2022-10-19T05:42:05.521Z,1006.65
2022-10-19T05:43:05.505Z,1006.77
2022-10-19T05:44:05.497Z,1006.68
2022-10-19T05:45:05.496Z,1006.72
2022-10-19T05:46:05.505Z,1006.58
2022-10-19T05:47:05.474Z,1006.61
2022-10-19T05:48:05.470Z,1006.72
2022-10-19T05:49:05.470Z,1006.76
2022-10-19T05:50:05.452Z,1006.75
2022-10-19T05:51:05.478Z,1006.73
2022-10-19T05:52:05.443Z,1006.67
2022-10-19T05:53:05.432Z,1006.71
2022-10-19T05:54:05.429Z,1006.75
2022-10-19T05:55:05.420Z,1006.68
2022-10-19T05:56:05.442Z,1006.66
2022-10-19T05:57:05.399Z,1006.71
2022-10-19T05:58:05.396Z,1006.74
2022-10-19T05:59:05.383Z,1006.77
2022-10-19T06:00:06.382Z,1006.76
2022-10-19T06:01:05.400Z,1006.77
2022-10-19T06:02:05.406Z,1006.80
2022-10-19T06:03:05.355Z,1006.75
2022-10-19T06:04:05.381Z,1006.83
2022-10-19T06:05:05.342Z,1006.83
2022-10-19T06:06:05.366Z,1006.80
2022-10-19T06:07:05.333Z,1006.87
2022-10-19T06:08:05.320Z,1006.87
2022-10-19T06:09:05.314Z,1006.92
2022-10-19T06:10:05.309Z,1006.89
2022-10-19T06:11:05.320Z,1006.93
2022-10-19T06:12:05.290Z,1006.95
2022-10-19T06:13:05.294Z,1006.92
2022-10-19T06:14:05.271Z,1006.96
2022-10-19T06:15:05.262Z,1006.93
2022-10-19T06:16:05.280Z,1007.01
2022-10-19T06:17:06.255Z,1006.93
2022-10-19T06:18:05.250Z,1006.93
2022-10-19T06:19:05.237Z,1006.95
2022-10-19T06:20:05.234Z,1007.00
2022-10-19T06:21:05.243Z,1007.00
2022-10-19T06:22:05.210Z,1006.93
2022-10-19T06:23:05.201Z,1006.97
2022-10-19T06:24:05.200Z,1006.94
2022-10-19T06:25:05.194Z,1006.92
2022-10-19T06:26:05.219Z,1006.90
2022-10-19T06:27:05.178Z,1006.93
2022-10-19T06:28:05.168Z,1006.91
2022-10-19T06:29:05.176Z,1006.92
2022-10-19T06:30:05.147Z,1006.92
2022-10-19T06:31:08.448Z,1006.92
2022-10-19T06:32:05.131Z,1006.87
2022-10-19T06:33:05.132Z,1006.94
2022-10-19T06:34:05.193Z,1006.84
2022-10-19T06:35:05.111Z,1006.92
2022-10-19T06:36:05.140Z,1006.89
2022-10-19T06:37:05.107Z,1006.91
2022-10-19T06:38:05.087Z,1006.88
2022-10-19T06:39:05.075Z,1006.93
2022-10-19T06:40:07.205Z,1006.89
2022-10-19T06:41:06.061Z,1006.90
2022-10-19T06:42:05.065Z,1006.96
2022-10-19T06:43:05.063Z,1006.92
2022-10-19T06:44:05.046Z,1006.89
2022-10-19T06:45:05.057Z,1007.01
2022-10-19T06:46:05.026Z,1006.93
2022-10-19T06:47:05.017Z,1006.99
2022-10-19T06:48:07.538Z,1007.04
2022-10-19T06:49:06.000Z,1007.02
2022-10-19T06:50:05.004Z,1007.09
2022-10-19T06:51:06.348Z,1007.04
2022-10-19T06:52:05.987Z,1007.07
2022-10-19T06:53:04.975Z,1007.09
2022-10-19T06:54:04.965Z,1007.09
2022-10-19T06:55:04.976Z,1007.11
2022-10-19T06:56:04.982Z,1007.19
2022-10-19T06:57:04.950Z,1007.10
2022-10-19T06:58:04.940Z,1007.06
2022-10-19T06:59:04.936Z,1007.06
2022-10-19T07:00:04.958Z,1007.11
2022-10-19T07:01:04.988Z,1007.12
2022-10-19T07:02:04.913Z,1007.13
2022-10-19T07:03:04.908Z,1007.13
2022-10-19T07:04:04.901Z,1007.08
2022-10-19T07:05:06.983Z,1007.08
2022-10-19T07:06:05.909Z,1007.05
2022-10-19T07:07:04.881Z,1007.14
2022-10-19T07:08:04.907Z,1007.17
2022-10-19T07:09:04.858Z,1007.13
2022-10-19T07:10:04.854Z,1007.08
2022-10-19T07:11:04.876Z,1007.16
2022-10-19T07:12:04.836Z,1007.16
2022-10-19T07:13:04.828Z,1007.16
2022-10-19T07:14:04.820Z,1007.22
2022-10-19T07:15:04.810Z,1007.16
2022-10-19T07:16:05.000Z,1007.10
2022-10-19T07:17:04.803Z,1007.18
2022-10-19T07:18:04.804Z,1007.13
2022-10-19T07:19:04.791Z,1007.13
2022-10-19T07:20:04.795Z,1007.16
2022-10-19T07:21:04.794Z,1007.22
2022-10-19T07:22:04.758Z,1007.20
2022-10-19T07:23:04.757Z,1007.22
2022-10-19T07:24:04.746Z,1007.16
2022-10-19T07:25:04.735Z,1007.21
2022-10-19T07:26:04.753Z,1007.29
2022-10-19T07:27:04.719Z,1007.28
2022-10-19T07:28:04.713Z,1007.28
2022-10-19T07:29:04.702Z,1007.21
2022-10-19T07:30:04.704Z,1007.23
2022-10-19T07:31:04.713Z,1007.26
2022-10-19T07:32:04.679Z,1007.24
2022-10-19T07:33:04.729Z,1007.25
2022-10-19T07:34:04.665Z,1007.36
2022-10-19T07:35:04.689Z,1007.23
2022-10-19T07:36:04.671Z,1007.31
2022-10-19T07:37:04.643Z,1007.32
2022-10-19T07:38:04.649Z,1007.27
2022-10-19T07:39:04.635Z,1007.33
2022-10-19T07:40:04.670Z,1007.34
2022-10-19T07:41:04.617Z,1007.41
2022-10-19T07:42:04.615Z,1007.27
2022-10-19T07:43:04.605Z,1007.36
2022-10-19T07:44:04.591Z,1007.34
2022-10-19T07:45:04.610Z,1007.30
2022-10-19T07:46:04.589Z,1007.42
2022-10-19T07:47:04.567Z,1007.39
2022-10-19T07:48:04.564Z,1007.34
2022-10-19T07:49:04.561Z,1007.34
2022-10-19T07:50:04.568Z,1007.38
2022-10-19T07:51:04.541Z,1007.36
2022-10-19T07:52:04.533Z,1007.41
2022-10-19T07:53:04.535Z,1007.27
2022-10-19T07:54:04.526Z,1007.35
2022-10-19T07:55:04.532Z,1007.41
2022-10-19T07:56:04.507Z,1007.34
2022-10-19T07:57:04.492Z,1007.41
2022-10-19T07:58:04.482Z,1007.33
2022-10-19T07:59:04.477Z,1007.34
2022-10-19T08:00:04.502Z,1007.36
2022-10-19T08:01:04.463Z,1007.28
2022-10-19T08:02:04.538Z,1007.25
2022-10-19T08:04:13.756Z,1007.33
2022-10-19T08:05:10.485Z,1007.27
2022-10-19T08:06:05.424Z,1007.23
2022-10-19T08:07:04.428Z,1007.21
2022-10-19T08:08:04.411Z,1007.16
2022-10-19T08:09:04.455Z,1007.18
2022-10-19T08:10:04.422Z,1007.25
2022-10-19T08:11:04.390Z,1007.26
2022-10-19T08:12:04.385Z,1007.24
2022-10-19T08:13:04.384Z,1007.19
2022-10-19T08:14:04.372Z,1007.19
2022-10-19T08:15:04.385Z,1007.26
2022-10-19T08:16:04.353Z,1007.22
2022-10-19T08:17:04.342Z,1007.29
2022-10-19T08:18:04.338Z,1007.17
2022-10-19T08:19:04.336Z,1007.15
2022-10-19T08:20:04.345Z,1007.23
2022-10-19T08:21:04.328Z,1007.21
2022-10-19T08:22:04.306Z,1007.20
2022-10-19T08:23:04.314Z,1007.13
2022-10-19T08:24:04.294Z,1007.13
2022-10-19T08:25:04.305Z,1007.17
2022-10-19T08:26:04.286Z,1007.19
2022-10-19T08:27:04.270Z,1007.20
2022-10-19T08:28:04.270Z,1007.11
2022-10-19T08:29:04.254Z,1007.13
2022-10-19T08:30:04.272Z,1007.14
2022-10-19T08:31:04.242Z,1007.10
2022-10-19T08:32:04.247Z,1007.12
2022-10-19T08:33:04.229Z,1007.10
2022-10-19T08:34:04.219Z,1007.10
2022-10-19T08:35:08.444Z,1007.18
2022-10-19T08:36:06.206Z,1007.17
2022-10-19T08:37:10.483Z,1007.17
2022-10-19T08:38:06.190Z,1007.15
2022-10-19T08:39:04.184Z,1007.15
2022-10-19T08:40:04.225Z,1007.21
2022-10-19T08:41:04.166Z,1007.21
2022-10-19T08:42:04.159Z,1007.19
2022-10-19T08:43:04.151Z,1007.16
2022-10-19T08:44:06.330Z,1007.11
2022-10-19T08:45:05.162Z,1007.20
2022-10-19T08:46:04.127Z,1007.16
2022-10-19T08:47:06.063Z,1007.09
2022-10-19T08:48:04.110Z,1007.19
2022-10-19T08:49:04.105Z,1007.17
2022-10-19T08:50:04.105Z,1007.11
2022-10-19T08:51:04.117Z,1007.11
2022-10-19T08:52:04.086Z,1007.07
2022-10-19T08:53:04.069Z,1007.11
2022-10-19T08:54:04.080Z,1007.12
2022-10-19T08:55:04.055Z,1007.06
2022-10-19T08:56:04.816Z,1007.05
2022-10-19T08:57:04.041Z,1006.98
2022-10-19T08:58:04.038Z,1007.06
2022-10-19T08:59:04.025Z,1006.99
2022-10-19T09:00:04.019Z,1006.94
2022-10-19T09:01:04.069Z,1006.96
2022-10-19T09:02:04.008Z,1006.98
2022-10-19T09:03:03.992Z,1006.98
2022-10-19T09:04:04.092Z,1006.93
2022-10-19T09:05:03.975Z,1006.91
2022-10-19T09:06:04.004Z,1006.98
2022-10-19T09:07:03.968Z,1006.93
2022-10-19T09:08:03.960Z,1006.95
2022-10-19T09:09:04.017Z,1006.97
2022-10-19T09:10:03.948Z,1006.91
2022-10-19T09:11:03.966Z,1006.94
2022-10-19T09:12:03.930Z,1006.97
2022-10-19T09:13:03.929Z,1006.99
2022-10-19T09:14:05.445Z,1006.89
2022-10-19T09:15:04.913Z,1006.86
2022-10-19T09:16:03.966Z,1006.86
2022-10-19T09:17:03.893Z,1006.96
2022-10-19T09:18:03.879Z,1007.01
2022-10-19T09:19:03.884Z,1006.94
2022-10-19T09:20:03.872Z,1006.94
2022-10-19T09:21:03.891Z,1006.91
2022-10-19T09:22:03.851Z,1006.89
2022-10-19T09:23:03.877Z,1006.90
2022-10-19T09:24:03.838Z,1006.78
2022-10-19T09:25:03.830Z,1006.86
2022-10-19T09:26:03.847Z,1006.89
2022-10-19T09:27:03.809Z,1006.77
2022-10-19T09:28:03.843Z,1006.86
2022-10-19T09:29:03.800Z,1006.82
2022-10-19T09:30:03.829Z,1006.89
2022-10-19T09:31:03.831Z,1006.83
2022-10-19T09:32:03.785Z,1006.80
2022-10-19T09:33:03.773Z,1006.76
2022-10-19T09:34:03.762Z,1006.79
2022-10-19T09:35:03.757Z,1006.85
2022-10-19T09:36:03.758Z,1006.83
2022-10-19T09:37:03.778Z,1006.80
2022-10-19T09:38:03.737Z,1006.83
2022-10-19T09:39:03.718Z,1006.85
2022-10-19T09:40:03.744Z,1006.82
2022-10-19T09:41:03.738Z,1006.88
2022-10-19T09:42:03.703Z,1006.89
2022-10-19T09:43:03.693Z,1006.83
2022-10-19T09:44:03.700Z,1006.84
2022-10-19T09:45:03.674Z,1006.85
2022-10-19T09:46:07.845Z,1006.89
2022-10-19T09:47:07.143Z,1006.92
2022-10-19T09:48:07.215Z,1006.91
2022-10-19T09:49:05.645Z,1006.84
2022-10-19T09:50:03.696Z,1006.81
2022-10-19T09:51:03.660Z,1006.89
2022-10-19T09:52:04.628Z,1006.89
2022-10-19T09:53:03.617Z,1006.89
2022-10-19T09:54:03.606Z,1006.82
2022-10-19T09:55:03.604Z,1006.84
2022-10-19T09:56:03.621Z,1006.84
2022-10-19T09:57:03.599Z,1006.78
2022-10-19T09:58:03.579Z,1006.86
2022-10-19T09:59:03.580Z,1006.72
2022-10-19T10:00:03.568Z,1006.75
2022-10-19T10:01:03.590Z,1006.75
2022-10-19T10:03:03.538Z,1006.75
2022-10-19T10:04:03.539Z,1006.83
2022-10-19T10:05:03.535Z,1006.82
2022-10-19T10:06:03.565Z,1006.80
2022-10-19T10:07:03.517Z,1006.81
2022-10-19T10:08:03.507Z,1006.76
2022-10-19T10:09:04.578Z,1006.83
2022-10-19T10:10:03.488Z,1006.80
2022-10-19T10:11:03.514Z,1006.76
2022-10-19T10:12:03.481Z,1006.73
2022-10-19T10:13:03.469Z,1006.72
2022-10-19T10:14:05.041Z,1006.67
2022-10-19T10:15:05.448Z,1006.67
2022-10-19T10:16:03.473Z,1006.66
2022-10-19T10:17:03.516Z,1006.69
2022-10-19T10:18:03.429Z,1006.73
2022-10-19T10:19:03.421Z,1006.71
2022-10-19T10:20:03.427Z,1006.68
2022-10-19T10:21:05.821Z,1006.67
2022-10-19T10:22:03.401Z,1006.61
2022-10-19T10:23:03.399Z,1006.61
2022-10-19T10:24:03.396Z,1006.69
2022-10-19T10:25:03.390Z,1006.57
2022-10-19T10:26:03.408Z,1006.59
2022-10-19T10:27:03.488Z,1006.53
2022-10-19T10:28:03.366Z,1006.56
2022-10-19T10:29:03.353Z,1006.58
2022-10-19T10:30:03.349Z,1006.52
2022-10-19T10:31:03.366Z,1006.62
2022-10-19T10:32:03.347Z,1006.56
2022-10-19T10:33:13.210Z,1006.59
2022-10-19T10:34:16.278Z,1006.58
2022-10-19T10:35:04.311Z,1006.55
2022-10-19T10:36:03.335Z,1006.57
2022-10-19T10:37:03.313Z,1006.58
2022-10-19T10:38:03.281Z,1006.57
2022-10-19T10:40:04.810Z,1006.62
2022-10-19T10:41:04.280Z,1006.60
2022-10-19T10:42:03.258Z,1006.49
2022-10-19T10:43:03.250Z,1006.51
2022-10-19T10:44:04.767Z,1006.58
2022-10-19T10:45:03.223Z,1006.58
2022-10-19T10:46:04.265Z,1006.58
2022-10-19T10:47:03.287Z,1006.56
2022-10-19T10:48:03.250Z,1006.57
2022-10-19T10:49:03.212Z,1006.58
2022-10-19T10:50:03.190Z,1006.52
2022-10-19T10:51:03.217Z,1006.47
2022-10-19T10:52:03.173Z,1006.49
2022-10-19T10:53:03.164Z,1006.41
2022-10-19T10:54:03.170Z,1006.44
2022-10-19T10:55:03.147Z,1006.51
2022-10-19T10:56:03.143Z,1006.41
2022-10-19T10:57:05.585Z,1006.43
2022-10-19T10:58:03.133Z,1006.44
2022-10-19T10:59:03.123Z,1006.35
2022-10-19T11:00:03.117Z,1006.44
2022-10-19T11:01:06.688Z,1006.41
2022-10-19T11:02:03.172Z,1006.45
2022-10-19T11:03:03.101Z,1006.37
2022-10-19T11:04:03.099Z,1006.41
2022-10-19T11:05:03.075Z,1006.44
2022-10-19T11:06:03.068Z,1006.30
2022-10-19T11:07:03.144Z,1006.31
2022-10-19T11:08:03.053Z,1006.32
2022-10-19T11:09:03.102Z,1006.26
2022-10-19T11:10:03.039Z,1006.26
2022-10-19T11:11:03.041Z,1006.27
2022-10-19T11:12:03.049Z,1006.25
2022-10-19T11:13:03.014Z,1006.22
2022-10-19T11:14:03.009Z,1006.23
2022-10-19T11:15:02.991Z,1006.22
2022-10-19T11:16:02.991Z,1006.19
2022-10-19T11:17:03.026Z,1006.26
2022-10-19T11:18:02.975Z,1006.20
2022-10-19T11:19:03.020Z,1006.24
2022-10-19T11:20:02.964Z,1006.13
2022-10-19T11:21:02.955Z,1006.16
2022-10-19T11:22:02.973Z,1006.14
2022-10-19T11:23:02.937Z,1006.09
2022-10-19T11:24:02.936Z,1006.09
2022-10-19T11:25:02.925Z,1006.10
2022-10-19T11:26:02.924Z,1006.06
2022-10-19T11:27:02.979Z,1005.97
2022-10-19T11:28:02.904Z,1006.06
2022-10-19T11:29:02.886Z,1006.02
2022-10-19T11:30:02.884Z,1005.96
2022-10-19T11:31:02.881Z,1006.00
2022-10-19T11:32:02.899Z,1005.89
2022-10-19T11:33:02.862Z,1005.83
2022-10-19T11:34:02.856Z,1005.97
2022-10-19T11:35:02.852Z,1005.80
2022-10-19T11:36:02.838Z,1005.86
2022-10-19T11:37:02.879Z,1005.89
2022-10-19T11:38:21.158Z,1005.82
2022-10-19T11:39:04.814Z,1005.84
2022-10-19T11:40:02.808Z,1005.85
2022-10-19T11:41:17.462Z,1005.85
2022-10-19T11:42:04.818Z,1005.79
2022-10-19T11:43:02.789Z,1005.76
2022-10-19T11:44:02.792Z,1005.74
2022-10-19T11:45:02.782Z,1005.79
2022-10-19T11:46:02.777Z,1005.72
2022-10-19T11:47:02.858Z,1005.75
2022-10-19T11:48:02.761Z,1005.71
2022-10-19T11:49:02.759Z,1005.70
2022-10-19T11:50:02.758Z,1005.64
2022-10-19T11:51:17.471Z,1005.68
2022-10-19T11:52:04.742Z,1005.62
2022-10-19T11:53:02.709Z,1005.59
2022-10-19T11:54:02.703Z,1005.58
2022-10-19T11:55:02.694Z,1005.60
2022-10-19T11:56:02.681Z,1005.56
2022-10-19T11:57:05.568Z,1005.54
2022-10-19T11:58:03.678Z,1005.59
2022-10-19T11:59:02.733Z,1005.49
2022-10-19T12:00:13.911Z,1005.45
2022-10-19T12:01:04.647Z,1005.43
2022-10-19T12:02:02.727Z,1005.46
2022-10-19T12:03:03.871Z,1005.37
2022-10-19T12:04:03.623Z,1005.30
2022-10-19T12:05:02.636Z,1005.32
2022-10-19T12:06:02.618Z,1005.29
2022-10-19T12:07:02.655Z,1005.29
2022-10-19T12:08:02.610Z,1005.27